Time;durP1;ratioP1;P1;durP2;ratioP2;P2;SDS_P1;SDS_P2;PMS_P1;PMS_P2;Temp;Humidity;BMP_temperature;BMP_pressure;BME280_temperature;BME280_humidity;BME280_pressure;Samples;Min_cycle;Max_cycle;Signal;HPM_P1;HPM_P2
2022/03/13 00:00:11;;;;;;;27.90;14.63;;;;;;;-4.90;54.56;96513.00;5034339;28;20028;-86
2022/03/13 00:02:37;;;;;;;32.33;17.15;;;;;;;-5.00;54.91;96508.06;5065729;28;20036;-86
2022/03/13 00:05:03;;;;;;;35.10;15.98;;;;;;;-4.95;54.30;96507.94;5048843;28;20035;-86
2022/03/13 00:07:31;;;;;;;33.78;14.38;;;;;;;-4.94;54.14;96498.28;5065733;28;20063;-85
2022/03/13 00:09:56;;;;;;;28.75;13.95;;;;;;;-5.03;54.29;96505.56;5068621;28;20036;-85
2022/03/13 00:12:27;;;;;;;26.15;14.35;;;;;;;-5.05;54.30;96504.78;5070596;28;20036;-86
2022/03/13 00:14:56;;;;;;;28.52;13.23;;;;;;;-5.02;54.30;96499.44;5068212;28;20036;-84
2022/03/13 00:17:24;;;;;;;29.63;13.75;;;;;;;-5.03;53.86;96507.34;5086053;28;20108;-85
2022/03/13 00:19:49;;;;;;;24.83;12.55;;;;;;;-5.05;53.57;96511.75;5051857;28;20538;-86
2022/03/13 00:22:15;;;;;;;18.42;10.07;;;;;;;-5.00;52.84;96500.22;5069334;28;20012;-85
2022/03/13 00:24:41;;;;;;;24.02;10.15;;;;;;;-5.06;53.16;96505.66;5068936;28;20029;-85
2022/03/13 00:27:07;;;;;;;16.92;9.40;;;;;;;-5.14;53.54;96510.34;5069927;28;20031;-86
2022/03/13 00:29:33;;;;;;;26.67;10.77;;;;;;;-5.13;53.81;96506.81;5070745;28;20060;-85
2022/03/13 00:31:58;;;;;;;23.80;10.70;;;;;;;-5.07;53.87;96503.97;5068142;28;20494;-85
2022/03/13 00:34:24;;;;;;;20.35;10.48;;;;;;;-5.01;53.87;96497.66;5053085;28;20016;-86
2022/03/13 00:36:49;;;;;;;24.77;12.20;;;;;;;-5.05;54.28;96501.28;5068978;28;20025;-86
2022/03/13 00:39:15;;;;;;;25.00;12.40;;;;;;;-5.00;54.13;96496.75;5069457;28;20021;-85
2022/03/13 00:41:41;;;;;;;23.20;10.55;;;;;;;-4.99;54.19;96495.84;5067888;28;20446;-85
2022/03/13 00:44:06;;;;;;;20.67;10.25;;;;;;;-5.04;54.76;96498.63;5069725;28;20032;-85
2022/03/13 00:46:32;;;;;;;24.38;11.73;;;;;;;-4.98;54.70;96494.94;5068117;28;20035;-86
2022/03/13 00:48:57;;;;;;;19.73;10.25;;;;;;;-4.99;54.76;96488.00;5067839;28;20487;-85
2022/03/13 00:51:23;;;;;;;19.60;10.45;;;;;;;-4.96;54.67;96483.50;5085733;28;20105;-85
2022/03/13 00:53:48;;;;;;;23.92;11.35;;;;;;;-5.00;54.54;96487.13;5083806;28;20036;-86
2022/03/13 00:56:14;;;;;;;23.77;10.52;;;;;;;-5.03;54.27;96489.03;5068919;28;20063;-86
2022/03/13 00:58:40;;;;;;;24.45;11.25;;;;;;;-5.05;54.52;96482.97;5050699;28;20016;-85
2022/03/13 01:01:06;;;;;;;27.50;12.10;;;;;;;-5.04;54.71;96472.47;5069077;28;20031;-85
2022/03/13 01:03:34;;;;;;;23.90;10.57;;;;;;;-5.09;54.24;96474.38;5069365;28;20021;-87
2022/03/13 01:06:00;;;;;;;22.23;9.35;;;;;;;-5.05;54.15;96477.75;5069664;28;20020;-84
2022/03/13 01:08:26;;;;;;;21.17;9.02;;;;;;;-5.03;53.86;96476.78;5068139;28;20028;-85
2022/03/13 01:10:52;;;;;;;17.90;9.20;;;;;;;-5.13;54.38;96471.03;5067030;28;20021;-84
2022/03/13 01:13:19;;;;;;;17.02;9.15;;;;;;;-5.18;54.41;96461.63;5051632;28;20032;-85
2022/03/13 01:15:46;;;;;;;20.95;10.40;;;;;;;-5.19;54.57;96468.63;5050134;28;20028;-85
2022/03/13 01:18:11;;;;;;;19.33;9.98;;;;;;;-5.26;55.03;96467.13;5068470;28;20028;-85
2022/03/13 01:20:37;;;;;;;22.40;10.27;;;;;;;-5.23;54.77;96459.19;5050054;28;20110;-85
2022/03/13 01:23:02;;;;;;;23.15;10.02;;;;;;;-5.22;55.15;96461.75;5084732;28;20028;-86
2022/03/13 01:25:28;;;;;;;21.80;9.80;;;;;;;-5.25;55.73;96461.00;5067836;28;20490;-85
2022/03/13 01:27:53;;;;;;;20.95;10.32;;;;;;;-5.23;55.74;96456.56;5068038;28;20510;-85
2022/03/13 01:30:19;;;;;;;21.60;10.85;;;;;;;-5.28;55.48;96451.50;5068225;28;20029;-86
2022/03/13 01:32:47;;;;;;;20.83;10.05;;;;;;;-5.36;55.91;96448.28;5066661;28;20077;-86
2022/03/13 01:35:18;;;;;;;18.63;9.45;;;;;;;-5.25;55.94;96443.53;5069665;28;20028;-86
2022/03/13 01:37:44;;;;;;;21.85;10.80;;;;;;;-5.30;55.78;96445.47;5066547;28;20036;-86
2022/03/13 01:40:11;;;;;;;20.77;9.77;;;;;;;-5.23;55.45;96441.75;5069542;28;20024;-86
2022/03/13 01:42:37;;;;;;;21.80;9.75;;;;;;;-5.25;55.50;96445.28;5068517;28;20111;-86
2022/03/13 01:45:03;;;;;;;19.75;9.77;;;;;;;-5.27;55.62;96441.91;5050760;28;20049;-86
2022/03/13 01:47:29;;;;;;;22.70;9.65;;;;;;;-5.36;55.70;96441.31;5068223;28;20081;-86
2022/03/13 01:49:54;;;;;;;17.85;9.15;;;;;;;-5.41;56.67;96439.75;5033920;28;20020;-85
2022/03/13 01:52:23;;;;;;;18.35;9.57;;;;;;;-5.55;57.25;96440.25;5068151;28;20029;-87
2022/03/13 01:54:48;;;;;;;20.77;9.90;;;;;;;-5.60;57.30;96441.25;5050692;28;20021;-86
2022/03/13 01:57:18;;;;;;;26.08;11.90;;;;;;;-5.64;57.28;96450.09;5068585;28;20082;-86
2022/03/13 01:59:44;;;;;;;21.33;11.57;;;;;;;-5.64;57.12;96455.31;5084366;28;20044;-85
2022/03/13 02:02:09;;;;;;;21.23;10.20;;;;;;;-5.56;56.29;96449.00;5067553;28;20082;-85
2022/03/13 02:04:35;;;;;;;23.58;10.68;;;;;;;-5.61;56.72;96449.16;5068524;28;20471;-85
2022/03/13 02:07:00;;;;;;;25.23;10.65;;;;;;;-5.71;57.17;96449.44;5067244;28;20122;-84
2022/03/13 02:09:27;;;;;;;20.02;10.18;;;;;;;-5.79;57.47;96445.41;5069272;28;20040;-85
2022/03/13 02:11:53;;;;;;;24.20;11.43;;;;;;;-5.73;57.44;96450.41;5032826;28;20467;-85
2022/03/13 02:14:21;;;;;;;22.08;10.23;;;;;;;-5.74;57.72;96453.94;5067923;28;20063;-85
2022/03/13 02:16:46;;;;;;;21.00;10.18;;;;;;;-5.76;58.45;96455.75;5066501;28;20052;-85
2022/03/13 02:19:12;;;;;;;25.63;10.85;;;;;;;-5.80;57.70;96454.97;5068504;28;20080;-85
2022/03/13 02:21:44;;;;;;;19.52;9.65;;;;;;;-5.79;57.25;96454.09;5067241;28;20277;-85
2022/03/13 02:24:12;;;;;;;21.75;10.13;;;;;;;-5.84;57.23;96458.63;5050483;28;20028;-85
2022/03/13 02:26:38;;;;;;;26.55;11.57;;;;;;;-5.83;57.51;96461.19;5083947;28;20029;-85
2022/03/13 02:29:03;;;;;;;22.10;12.20;;;;;;;-5.81;57.32;96460.25;5049318;28;21118;-86
2022/03/13 02:31:34;;;;;;;23.60;11.88;;;;;;;-5.77;57.36;96462.72;5066738;28;20020;-85
2022/03/13 02:33:59;;;;;;;27.77;13.25;;;;;;;-5.87;57.79;96459.56;5065612;28;20483;-86
2022/03/13 02:36:31;;;;;;;27.88;14.07;;;;;;;-5.98;57.89;96466.91;5051251;28;20032;-85
2022/03/13 02:39:03;;;;;;;26.42;13.93;;;;;;;-5.97;57.75;96461.63;5067813;28;20453;-85
2022/03/13 02:41:29;;;;;;;28.48;12.63;;;;;;;-5.97;57.36;96460.78;5083289;28;20058;-86
2022/03/13 02:43:55;;;;;;;32.42;13.40;;;;;;;-6.01;57.87;96467.84;5066333;28;20029;-85
2022/03/13 02:46:22;;;;;;;26.33;11.85;;;;;;;-5.99;58.03;96465.19;5065102;28;20032;-85
2022/03/13 02:48:48;;;;;;;25.10;13.55;;;;;;;-6.09;58.20;96468.13;5068106;28;20028;-85
2022/03/13 02:51:13;;;;;;;23.63;11.98;;;;;;;-5.96;58.35;96465.09;5048754;28;20634;-86
2022/03/13 02:53:39;;;;;;;19.50;9.20;;;;;;;-5.94;57.29;96455.44;5050401;28;20487;-87
2022/03/13 02:56:05;;;;;;;20.15;9.82;;;;;;;-5.98;58.04;96464.31;5065098;28;20399;-85
2022/03/13 02:58:31;;;;;;;16.00;7.95;;;;;;;-5.97;58.08;96466.88;5066465;28;20032;-85
2022/03/13 03:00:57;;;;;;;11.32;6.43;;;;;;;-5.98;56.49;96456.47;5067379;28;20036;-86
2022/03/13 03:03:23;;;;;;;13.73;7.95;;;;;;;-6.05;56.14;96454.97;5065490;28;20392;-86
2022/03/13 03:05:49;;;;;;;11.63;5.45;;;;;;;-6.11;56.21;96453.44;5065945;28;20768;-85
2022/03/13 03:08:14;;;;;;;11.18;5.88;;;;;;;-6.05;56.70;96462.81;5065218;28;20028;-85
2022/03/13 03:10:40;;;;;;;10.65;5.90;;;;;;;-6.09;56.46;96451.59;5066813;28;20024;-85
2022/03/13 03:13:07;;;;;;;13.80;6.70;;;;;;;-6.05;56.27;96454.97;5048262;28;20043;-86
2022/03/13 03:15:33;;;;;;;14.65;7.55;;;;;;;-6.05;56.56;96460.19;5066034;28;20571;-86
2022/03/13 03:17:59;;;;;;;12.80;6.47;;;;;;;-6.09;57.27;96455.06;5048591;28;20024;-86
2022/03/13 03:20:24;;;;;;;14.38;7.30;;;;;;;-6.07;57.06;96460.25;5065453;28;20048;-86
2022/03/13 03:22:51;;;;;;;13.43;7.18;;;;;;;-6.07;57.27;96457.63;5066962;28;20028;-86
2022/03/13 03:25:25;;;;;;;16.50;8.40;;;;;;;-6.12;57.44;96455.16;5067020;28;20035;-85
2022/03/13 03:27:51;;;;;;;11.85;6.60;;;;;;;-6.12;57.29;96449.09;5067648;28;20530;-85
2022/03/13 03:30:23;;;;;;;13.20;7.97;;;;;;;-6.11;57.30;96445.59;5065496;28;20021;-85
2022/03/13 03:32:49;;;;;;;15.18;8.20;;;;;;;-6.21;56.68;96447.63;5051409;28;20054;-85
2022/03/13 03:35:19;;;;;;;14.75;7.57;;;;;;;-6.22;56.56;96449.38;5048172;28;20093;-86
2022/03/13 03:37:45;;;;;;;15.27;7.35;;;;;;;-6.24;56.26;96451.19;5065630;28;20078;-87
2022/03/13 03:40:11;;;;;;;13.10;6.82;;;;;;;-6.22;56.74;96444.16;5069602;28;20115;-86
2022/03/13 03:42:36;;;;;;;16.00;7.00;;;;;;;-6.12;57.02;96444.72;5047997;28;20032;-86
2022/03/13 03:45:03;;;;;;;16.35;7.18;;;;;;;-6.12;56.37;96443.84;5066434;28;20032;-86
2022/03/13 03:47:28;;;;;;;20.02;9.02;;;;;;;-6.08;56.70;96448.94;5065804;28;20056;-86
2022/03/13 03:49:54;;;;;;;22.30;11.38;;;;;;;-6.11;56.22;96446.41;5049790;28;20020;-86
2022/03/13 03:52:19;;;;;;;18.83;9.52;;;;;;;-6.17;56.20;96438.78;5065513;28;20033;-88
2022/03/13 03:54:44;;;;;;;19.15;9.15;;;;;;;-6.25;57.16;96448.63;5067513;28;20054;-86
2022/03/13 03:57:10;;;;;;;15.60;8.07;;;;;;;-6.26;56.20;96446.91;5064464;28;20025;-86
2022/03/13 03:59:35;;;;;;;17.92;8.20;;;;;;;-6.35;56.75;96454.13;5048360;28;20043;-86
2022/03/13 04:02:01;;;;;;;16.95;7.95;;;;;;;-6.39;57.10;96451.66;5066533;28;20090;-87
2022/03/13 04:04:26;;;;;;;15.88;8.65;;;;;;;-6.42;57.84;96444.78;5066225;28;20016;-86
2022/03/13 04:06:53;;;;;;;16.67;8.20;;;;;;;-6.31;57.50;96440.97;5067036;28;20069;-87
2022/03/13 04:09:18;;;;;;;18.25;8.93;;;;;;;-6.26;57.32;96436.47;5031533;28;20078;-87
2022/03/13 04:11:44;;;;;;;17.25;9.35;;;;;;;-6.17;57.38;96433.56;5067119;28;20442;-85
2022/03/13 04:14:10;;;;;;;19.95;9.85;;;;;;;-6.16;57.40;96423.97;5065371;28;20518;-86
2022/03/13 04:16:35;;;;;;;17.63;8.95;;;;;;;-6.11;57.23;96430.75;5066758;28;20032;-85
2022/03/13 04:19:00;;;;;;;18.52;9.23;;;;;;;-6.10;57.06;96424.63;5064872;28;20028;-86
2022/03/13 04:21:26;;;;;;;19.98;9.98;;;;;;;-6.09;56.93;96428.09;5048774;28;20045;-85
2022/03/13 04:23:52;;;;;;;19.80;9.27;;;;;;;-6.06;56.87;96421.94;5048513;28;20047;-86
2022/03/13 04:26:17;;;;;;;17.92;9.38;;;;;;;-6.03;57.26;96422.63;5064374;28;20107;-86
2022/03/13 04:28:43;;;;;;;17.05;8.88;;;;;;;-6.04;57.45;96426.16;5065678;28;20028;-86
2022/03/13 04:31:08;;;;;;;20.52;9.73;;;;;;;-5.95;57.46;96420.63;5067129;28;20115;-86
2022/03/13 04:33:35;;;;;;;19.55;10.45;;;;;;;-5.95;57.25;96430.22;5065060;28;20032;-88
2022/03/13 04:36:03;;;;;;;23.75;10.18;;;;;;;-5.99;56.98;96431.22;5030679;28;20056;-85
2022/03/13 04:38:28;;;;;;;24.65;10.40;;;;;;;-5.95;57.16;96430.22;5048888;28;20035;-87
2022/03/13 04:40:55;;;;;;;21.63;10.73;;;;;;;-5.86;57.63;96432.53;5031067;28;20036;-87
2022/03/13 04:43:20;;;;;;;22.17;10.65;;;;;;;-6.02;57.32;96428.72;5064344;28;20025;-85
2022/03/13 04:45:46;;;;;;;24.80;10.98;;;;;;;-6.04;57.14;96431.38;5064663;28;20166;-86
2022/03/13 04:48:12;;;;;;;17.92;10.15;;;;;;;-5.97;57.30;96426.81;5047079;28;20198;-85
2022/03/13 04:50:37;;;;;;;19.88;10.02;;;;;;;-5.97;57.26;96432.03;5066472;28;20453;-86
2022/03/13 04:53:03;;;;;;;18.98;9.82;;;;;;;-5.92;57.19;96430.13;5064884;28;20039;-86
2022/03/13 04:55:28;;;;;;;23.13;10.90;;;;;;;-5.94;57.52;96431.94;5067274;28;20036;-86
2022/03/13 04:57:54;;;;;;;22.77;10.55;;;;;;;-6.00;57.34;96432.13;5053101;28;20021;-87
2022/03/13 05:00:19;;;;;;;20.92;10.02;;;;;;;-5.93;57.36;96425.78;5054505;28;20456;-86
2022/03/13 05:02:44;;;;;;;18.58;9.95;;;;;;;-5.81;57.67;96426.28;5051413;28;20032;-87
2022/03/13 05:05:10;;;;;;;22.45;10.88;;;;;;;-5.69;56.89;96425.88;5067963;28;20052;-86
2022/03/13 05:07:37;;;;;;;25.67;11.77;;;;;;;-5.72;56.92;96429.44;5068729;28;20021;-87
2022/03/13 05:10:05;;;;;;;28.25;13.27;;;;;;;-5.70;57.26;96439.84;5050662;28;20039;-85
2022/03/13 05:12:30;;;;;;;20.55;9.80;;;;;;;-5.69;57.34;96427.66;5069877;28;20095;-86
2022/03/13 05:14:55;;;;;;;21.17;11.35;;;;;;;-5.66;58.06;96436.25;5066794;28;20040;-86
2022/03/13 05:17:21;;;;;;;23.63;11.75;;;;;;;-5.58;58.12;96428.97;5069757;28;20025;-86
2022/03/13 05:19:46;;;;;;;20.73;11.13;;;;;;;-5.55;57.53;96435.88;5068270;28;20123;-86
2022/03/13 05:22:12;;;;;;;22.08;10.95;;;;;;;-5.57;57.52;96429.84;5051012;28;20147;-85
2022/03/13 05:24:37;;;;;;;19.90;11.35;;;;;;;-5.52;57.51;96429.69;5068006;28;20098;-86
2022/03/13 05:27:03;;;;;;;21.40;10.82;;;;;;;-5.44;56.99;96429.41;5068663;28;20498;-88
2022/03/13 05:29:28;;;;;;;24.45;11.63;;;;;;;-5.41;57.03;96431.91;5051538;28;20029;-85
2022/03/13 05:31:54;;;;;;;22.83;10.48;;;;;;;-5.37;56.49;96442.19;5066549;28;20039;-86
2022/03/13 05:34:19;;;;;;;22.45;11.38;;;;;;;-5.39;56.55;96433.59;5069878;28;20399;-85
2022/03/13 05:36:46;;;;;;;22.52;10.43;;;;;;;-5.38;56.66;96435.28;5069094;28;20414;-87
2022/03/13 05:39:11;;;;;;;20.90;10.93;;;;;;;-5.35;56.91;96440.41;5068268;28;20182;-86
2022/03/13 05:41:39;;;;;;;22.95;11.00;;;;;;;-5.31;57.22;96445.50;5068995;28;20036;-85
2022/03/13 05:44:06;;;;;;;20.92;11.07;;;;;;;-5.26;57.29;96446.22;5067352;28;20063;-86
2022/03/13 05:46:32;;;;;;;25.10;11.73;;;;;;;-5.09;57.82;96454.31;5084901;28;20522;-87
2022/03/13 05:48:57;;;;;;;22.00;11.40;;;;;;;-4.94;57.15;96444.19;5066777;28;20028;-86
2022/03/13 05:51:23;;;;;;;23.80;11.60;;;;;;;-4.92;56.40;96441.53;5069172;28;20031;-87
2022/03/13 05:53:48;;;;;;;19.48;10.93;;;;;;;-4.85;56.68;96441.25;5066143;28;20048;-86
2022/03/13 05:56:14;;;;;;;23.00;12.45;;;;;;;-4.86;55.95;96436.91;5067834;28;20479;-86
2022/03/13 05:58:39;;;;;;;21.77;11.70;;;;;;;-4.85;56.59;96438.63;5067046;28;20032;-86
2022/03/13 06:01:06;;;;;;;23.50;11.75;;;;;;;-4.88;56.09;96433.50;5051082;28;20025;-86
2022/03/13 06:03:32;;;;;;;28.13;12.80;;;;;;;-4.80;56.51;96450.69;5067974;28;20028;-86
2022/03/13 06:05:57;;;;;;;23.77;11.82;;;;;;;-4.66;56.99;96452.78;5083390;28;20039;-87
2022/03/13 06:08:23;;;;;;;26.70;13.07;;;;;;;-4.56;57.02;96458.53;5069496;28;20024;-86
2022/03/13 06:10:48;;;;;;;29.17;13.77;;;;;;;-4.48;56.74;96464.31;5066695;28;20024;-86
2022/03/13 06:13:14;;;;;;;29.15;13.30;;;;;;;-4.49;56.67;96457.38;5067497;28;20033;-85
2022/03/13 06:15:39;;;;;;;23.58;13.05;;;;;;;-4.32;56.61;96469.81;5049989;28;20115;-87
2022/03/13 06:18:05;;;;;;;34.30;15.18;;;;;;;-4.00;55.56;96461.63;5067440;28;20024;-86
2022/03/13 06:20:31;;;;;;;29.80;14.10;;;;;;;-3.77;54.98;96462.47;5066929;28;20052;-87
2022/03/13 06:22:59;;;;;;;30.23;14.38;;;;;;;-3.38;52.45;96451.19;5068561;28;20020;-86
2022/03/13 06:25:24;;;;;;;27.67;14.02;;;;;;;-3.35;53.22;96453.69;5068758;28;20501;-87
2022/03/13 06:27:49;;;;;;;28.88;13.93;;;;;;;-3.08;52.91;96447.31;5049595;28;20039;-87
2022/03/13 06:30:20;;;;;;;32.00;13.63;;;;;;;-2.80;51.87;96455.72;5084850;28;20056;-86
2022/03/13 06:32:47;;;;;;;27.58;13.90;;;;;;;-2.45;50.57;96468.19;5065990;28;20031;-87
2022/03/13 06:35:14;;;;;;;44.15;24.67;;;;;;;-2.27;50.58;96466.47;5069372;28;20055;-86
2022/03/13 06:37:39;;;;;;;34.17;20.92;;;;;;;-2.10;50.05;96463.06;5050509;28;20362;-87
2022/03/13 06:40:06;;;;;;;38.38;19.70;;;;;;;-1.84;49.55;96467.97;5068976;28;20466;-87
2022/03/13 06:42:33;;;;;;;34.33;17.33;;;;;;;-1.63;48.91;96466.09;5085148;28;20032;-87
2022/03/13 06:44:58;;;;;;;26.55;16.02;;;;;;;-1.40;49.00;96462.28;5066598;28;20028;-87
2022/03/13 06:47:24;;;;;;;27.95;15.10;;;;;;;-1.25;47.67;96460.69;5050790;28;20031;-87
2022/03/13 06:49:49;;;;;;;29.05;15.32;;;;;;;-1.13;47.94;96459.19;5067343;28;20085;-87
2022/03/13 06:52:15;;;;;;;27.58;13.75;;;;;;;-0.97;47.09;96457.53;5051041;28;20020;-88
2022/03/13 06:54:41;;;;;;;27.30;13.90;;;;;;;-1.06;47.44;96458.84;5065953;28;20029;-86
2022/03/13 06:57:06;;;;;;;25.48;14.48;;;;;;;-0.77;47.40;96452.06;5068503;28;20024;-87
2022/03/13 06:59:32;;;;;;;27.65;14.40;;;;;;;-0.61;46.17;96453.88;5067984;28;20489;-87
2022/03/13 07:01:57;;;;;;;26.08;14.13;;;;;;;-0.55;46.59;96442.19;5050166;28;20050;-86
2022/03/13 07:04:23;;;;;;;22.80;13.95;;;;;;;-0.33;46.26;96443.63;5068130;28;20026;-86
2022/03/13 07:06:48;;;;;;;31.33;16.30;;;;;;;-0.15;45.34;96434.72;5049219;28;20027;-87
2022/03/13 07:09:13;;;;;;;26.33;14.70;;;;;;;-0.16;45.08;96442.72;5050293;28;20020;-89
2022/03/13 07:11:48;;;;;;;22.17;12.75;;;;;;;-0.03;44.59;96441.06;5067317;28;20028;-87
2022/03/13 07:14:13;;;;;;;22.48;12.98;;;;;;;0.14;43.70;96441.91;5068825;28;20036;-87
2022/03/13 07:16:39;;;;;;;23.27;13.35;;;;;;;0.08;43.98;96440.47;5066034;28;20476;-88
2022/03/13 07:19:05;;;;;;;23.23;12.60;;;;;;;0.16;43.87;96440.03;5065345;28;20525;-86
2022/03/13 07:21:30;;;;;;;26.00;13.82;;;;;;;0.23;44.06;96438.75;5066122;28;20545;-87
2022/03/13 07:23:55;;;;;;;29.40;13.77;;;;;;;0.43;42.33;96442.03;5067060;28;20029;-87
2022/03/13 07:26:21;;;;;;;26.05;14.05;;;;;;;0.38;43.02;96445.88;5067943;28;20487;-88
2022/03/13 07:28:46;;;;;;;25.52;13.88;;;;;;;0.45;43.59;96441.94;5066928;28;20016;-87
2022/03/13 07:31:12;;;;;;;23.95;12.80;;;;;;;0.64;43.98;96440.84;5066427;28;20288;-86
2022/03/13 07:33:37;;;;;;;25.88;13.48;;;;;;;0.85;42.92;96439.56;5065078;28;20028;-88
2022/03/13 07:36:03;;;;;;;27.30;13.35;;;;;;;1.01;42.57;96443.09;5068137;28;20036;-87
2022/03/13 07:38:28;;;;;;;27.45;13.98;;;;;;;1.11;42.49;96434.50;5072338;28;20032;-87
2022/03/13 07:40:54;;;;;;;23.42;13.50;;;;;;;1.29;42.23;96442.25;5067352;28;20032;-88
2022/03/13 07:43:19;;;;;;;27.73;13.20;;;;;;;1.20;41.47;96433.13;5068534;28;20056;-88
2022/03/13 07:45:45;;;;;;;29.10;13.25;;;;;;;1.45;41.00;96444.81;5082559;28;20444;-86
2022/03/13 07:48:10;;;;;;;23.73;13.55;;;;;;;1.56;41.01;96441.50;5050741;28;20032;-88
2022/03/13 07:50:36;;;;;;;27.75;14.00;;;;;;;1.62;40.81;96439.41;5048480;28;20086;-88
2022/03/13 07:53:01;;;;;;;21.83;12.18;;;;;;;1.76;40.39;96428.81;5067909;28;20029;-88
2022/03/13 07:55:27;;;;;;;22.35;13.43;;;;;;;1.77;40.21;96430.53;5048682;28;20028;-88
2022/03/13 07:57:52;;;;;;;30.92;13.48;;;;;;;1.67;40.46;96426.75;5065776;28;20031;-88
2022/03/13 08:00:20;;;;;;;26.98;14.05;;;;;;;1.77;40.95;96422.59;5065984;28;20036;-90
2022/03/13 08:02:47;;;;;;;28.50;14.43;;;;;;;1.85;40.83;96417.63;5066303;28;20116;-87
2022/03/13 08:05:13;;;;;;;19.83;12.73;;;;;;;1.90;40.96;96413.88;5049932;28;20407;-87
2022/03/13 08:07:39;;;;;;;22.75;13.32;;;;;;;2.05;40.71;96404.06;5081597;28;20530;-88
2022/03/13 08:10:05;;;;;;;22.75;13.68;;;;;;;2.03;40.38;96404.16;5066973;28;20028;-87
2022/03/13 08:12:30;;;;;;;22.67;13.27;;;;;;;1.94;41.77;96404.75;5066184;28;20090;-89
2022/03/13 08:14:56;;;;;;;21.92;14.27;;;;;;;1.60;41.74;96399.84;5066711;28;20033;-89
2022/03/13 08:17:21;;;;;;;23.58;13.70;;;;;;;1.73;41.75;96400.78;5065952;28;20021;-89
2022/03/13 08:19:47;;;;;;;25.45;14.75;;;;;;;1.92;41.06;96402.22;5066302;28;20102;-88
2022/03/13 08:22:12;;;;;;;28.48;14.43;;;;;;;1.94;41.06;96396.81;5071742;28;20499;-88
2022/03/13 08:24:37;;;;;;;29.38;14.68;;;;;;;1.75;41.30;96397.16;5065448;28;20793;-87
2022/03/13 08:27:03;;;;;;;25.92;15.00;;;;;;;1.81;40.67;96392.34;5068093;28;20436;-88
2022/03/13 08:29:28;;;;;;;24.20;12.77;;;;;;;1.74;40.93;96404.28;5065869;28;20520;-90
2022/03/13 08:31:54;;;;;;;29.27;14.02;;;;;;;1.72;40.44;96403.50;5072947;28;20028;-89
2022/03/13 08:34:19;;;;;;;24.05;13.70;;;;;;;1.40;41.59;96401.97;5070569;28;20028;-89
2022/03/13 08:36:47;;;;;;;26.20;14.15;;;;;;;0.83;42.08;96398.34;5072755;28;20479;-89
2022/03/13 08:39:12;;;;;;;24.00;13.52;;;;;;;1.03;42.42;96391.03;5054549;28;20082;-90
2022/03/13 08:41:38;;;;;;;25.23;13.73;;;;;;;1.14;42.19;96396.50;5054170;28;20495;-88
2022/03/13 08:44:03;;;;;;;23.52;12.93;;;;;;;1.38;41.70;96388.00;5070549;28;20024;-88
2022/03/13 08:46:29;;;;;;;23.63;13.40;;;;;;;1.62;41.04;96375.94;5070326;28;20081;-90
2022/03/13 08:48:54;;;;;;;27.80;12.65;;;;;;;1.81;40.39;96381.75;5071727;28;20514;-89
2022/03/13 08:51:23;;;;;;;32.38;14.85;;;;;;;1.88;41.03;96378.72;5069826;28;20399;-89
2022/03/13 08:53:49;;;;;;;25.63;13.48;;;;;;;2.20;40.83;96378.41;5069892;28;20047;-90
2022/03/13 08:56:15;;;;;;;23.33;13.68;;;;;;;2.51;41.00;96378.16;5052864;28;20028;-88
2022/03/13 08:58:42;;;;;;;21.23;12.88;;;;;;;2.75;39.41;96365.03;5086287;28;20037;-89
2022/03/13 09:01:10;;;;;;;22.63;12.32;;;;;;;2.91;39.50;96363.97;5053918;28;20100;-89
2022/03/13 09:03:36;;;;;;;24.90;13.27;;;;;;;2.90;39.21;96357.00;5068488;28;20488;-88
2022/03/13 09:06:02;;;;;;;19.00;11.43;;;;;;;2.92;38.94;96358.56;5069554;28;20032;-89
2022/03/13 09:08:27;;;;;;;19.15;12.02;;;;;;;2.95;39.39;96355.72;5052573;28;20051;-89
2022/03/13 09:10:53;;;;;;;27.40;12.23;;;;;;;2.95;39.40;96358.34;5070220;28;20445;-90
2022/03/13 09:13:21;;;;;;;20.92;12.25;;;;;;;2.83;39.26;96349.47;5069098;28;20509;-89
2022/03/13 09:15:50;;;;;;;21.98;12.77;;;;;;;2.91;38.61;96345.44;5071020;28;20510;-90
2022/03/13 09:18:15;;;;;;;19.17;11.57;;;;;;;2.84;39.17;96351.16;5071561;28;20089;-89
2022/03/13 09:20:41;;;;;;;21.73;11.18;;;;;;;2.92;39.14;96347.97;5035908;28;20315;-88
2022/03/13 09:23:06;;;;;;;19.17;11.00;;;;;;;3.08;38.42;96344.25;5069148;28;20043;-88
2022/03/13 09:25:34;;;;;;;18.42;10.40;;;;;;;3.33;36.92;96342.53;5069380;28;20083;-88
2022/03/13 09:28:00;;;;;;;15.23;9.20;;;;;;;3.49;36.15;96344.94;5053100;28;20036;-88
2022/03/13 09:30:25;;;;;;;16.63;10.73;;;;;;;3.75;36.14;96344.84;5069475;28;20021;-88
2022/03/13 09:32:51;;;;;;;16.60;9.48;;;;;;;3.99;35.13;96341.34;5069892;28;20029;-89
2022/03/13 09:35:16;;;;;;;17.65;9.32;;;;;;;4.12;34.68;96337.78;5069246;28;20024;-89
2022/03/13 09:37:42;;;;;;;14.70;9.27;;;;;;;4.13;34.76;96336.81;5072145;28;20404;-88
2022/03/13 09:40:09;;;;;;;14.90;9.38;;;;;;;4.03;34.45;96332.19;5062480;28;20081;-88
2022/03/13 09:42:35;;;;;;;16.80;9.73;;;;;;;4.14;35.35;96327.91;5037082;28;20029;-89
2022/03/13 09:45:00;;;;;;;15.15;9.60;;;;;;;4.29;35.41;96316.13;5069962;28;20107;-90
2022/03/13 09:47:29;;;;;;;14.93;9.38;;;;;;;4.41;33.73;96310.84;5072424;28;20111;-90
2022/03/13 09:49:54;;;;;;;16.20;8.70;;;;;;;4.19;34.70;96321.25;5053536;28;20024;-90
2022/03/13 09:52:20;;;;;;;14.52;9.23;;;;;;;4.16;34.57;96315.38;5069280;28;20514;-89
2022/03/13 09:54:45;;;;;;;19.67;9.88;;;;;;;4.25;34.02;96309.34;5069064;28;20028;-89
2022/03/13 09:57:10;;;;;;;15.90;9.38;;;;;;;4.30;33.45;96307.19;5051993;28;20029;-90
2022/03/13 09:59:36;;;;;;;17.58;9.70;;;;;;;4.33;34.29;96303.47;5035419;28;20021;-88
2022/03/13 10:02:06;;;;;;;14.65;9.32;;;;;;;4.24;33.67;96297.00;5069392;28;20020;-89
2022/03/13 10:04:32;;;;;;;16.50;8.98;;;;;;;4.21;34.41;96297.25;5051918;28;20548;-89
2022/03/13 10:07:10;;;;;;;16.92;10.27;;;;;;;4.24;34.47;96297.00;5053120;28;20024;-91
2022/03/13 10:09:37;;;;;;;14.38;9.30;;;;;;;4.19;33.52;96300.03;5068474;28;20499;-89
2022/03/13 10:12:19;;;;;;;12.82;8.25;;;;;;;4.24;33.44;96296.19;5069324;28;20025;-90
2022/03/13 10:15:01;;;;;;;17.48;8.63;;;;;;;4.26;33.18;96289.78;5053396;28;20414;-91
2022/03/13 10:17:28;;;;;;;13.13;8.75;;;;;;;4.18;33.59;96290.38;5051837;28;20025;-89
2022/03/13 10:19:54;;;;;;;16.98;9.38;;;;;;;4.14;32.80;96301.34;5052675;28;20048;-90
2022/03/13 10:22:19;;;;;;;12.35;7.97;;;;;;;4.12;32.68;96287.31;5050536;28;20488;-89
2022/03/13 10:24:46;;;;;;;12.43;7.57;;;;;;;4.14;32.86;96293.38;5070193;28;20024;-90
2022/03/13 10:27:16;;;;;;;14.93;7.32;;;;;;;4.20;32.02;96284.94;5068221;28;20043;-89
2022/03/13 10:29:42;;;;;;;12.05;7.75;;;;;;;4.24;32.65;96285.56;5052878;28;20031;-90
2022/03/13 10:32:08;;;;;;;11.50;7.32;;;;;;;4.27;32.72;96280.84;5052632;28;20020;-92
2022/03/13 10:34:34;;;;;;;12.93;7.10;;;;;;;4.46;31.42;96274.16;5055987;28;20025;-90
2022/03/13 10:37:01;;;;;;;12.77;6.47;;;;;;;4.49;31.05;96276.56;5072430;28;20035;-90
2022/03/13 10:39:27;;;;;;;12.90;6.63;;;;;;;4.49;31.99;96273.91;5050922;28;20017;-90
2022/03/13 10:41:56;;;;;;;13.68;6.25;;;;;;;4.54;30.89;96273.56;5070192;28;20032;-92
2022/03/13 10:44:22;;;;;;;11.00;5.45;;;;;;;4.62;30.75;96267.63;5053228;28;20043;-90
2022/03/13 10:47:12;;;;;;;14.93;5.88;;;;;;;4.61;30.44;96268.63;5052295;28;20033;-91
2022/03/13 10:49:42;;;;;;;8.55;4.75;;;;;;;4.60;29.00;96261.59;5068823;28;20032;-90
2022/03/13 10:52:29;;;;;;;7.10;4.88;;;;;;;4.67;26.87;96265.47;5067288;28;20031;-90
2022/03/13 10:54:56;;;;;;;10.77;4.20;;;;;;;4.52;27.43;96264.84;5070751;28;20025;-90
2022/03/13 10:57:21;;;;;;;7.88;4.18;;;;;;;4.56;28.01;96264.50;5066954;28;20509;-90
2022/03/13 11:00:06;;;;;;;7.95;4.70;;;;;;;4.49;27.14;96259.78;5067991;28;20028;-92
2022/03/13 11:02:31;;;;;;;7.00;4.57;;;;;;;4.47;27.25;96256.38;5070194;28;20036;-91
2022/03/13 11:04:57;;;;;;;8.55;5.95;;;;;;;4.44;27.86;96255.66;5068388;28;20423;-91
2022/03/13 11:07:24;;;;;;;12.30;5.68;;;;;;;4.53;27.72;96248.78;5069135;28;20078;-89
2022/03/13 11:09:49;;;;;;;8.88;5.85;;;;;;;4.62;27.96;96257.00;5066695;28;20039;-91
2022/03/13 11:12:21;;;;;;;11.05;5.47;;;;;;;4.64;27.93;96242.63;5069247;28;20020;-91
2022/03/13 11:14:52;;;;;;;6.17;4.40;;;;;;;4.68;26.86;96245.91;5068842;28;20024;-91
2022/03/13 11:17:19;;;;;;;5.18;3.95;;;;;;;4.69;25.65;96242.28;5051734;28;20025;-90
2022/03/13 11:19:49;;;;;;;6.35;4.10;;;;;;;4.69;26.25;96240.47;5051885;28;20076;-91